CDG weather

Public forecast

Using degrees Celsius for public forecast. Weather courtesy of forecast.io.

Current aviation weather report (METAR) for Charles de Gaulle International Airport

Retrieved 2020/08/10 18:30 UTC (21 minutes ago):

LFPG 101830Z 05004KT CAVOK 32/13 Q1013 NOSIG

Aviation forecast (TAF) for Charles de Gaulle International Airport

Retrieved 2020/08/10 18:24 UTC (27 minutes ago):

TAF LFPG 101700Z 1018/1124 06006KT CAVOK TX37/1115Z TN23/1104Z PROB30 TEMPO 1018/1020 06015G25KT FEW080TCU BECMG 1112/1114 20010KT PROB30 TEMPO 1114/1117 SHRA FEW080CB PROB40 TEMPO 1117/1120 VRB15G35KT 4000 TSRA SCT080CB BECMG 1120/1122 VRB05KT